createdAt,value
2022-11-14T00:00:01.770Z,100303.44
2022-11-14T00:03:07.268Z,100310.16
2022-11-14T00:06:11.483Z,100313.88
2022-11-14T00:09:14.896Z,100320.78
2022-11-14T00:12:19.015Z,100321.41
2022-11-14T00:15:23.058Z,100319.63
2022-11-14T00:18:27.026Z,100315.47
2022-11-14T00:21:31.157Z,100323.19
2022-11-14T00:24:35.244Z,100320.78
2022-11-14T00:27:39.148Z,100323.78
2022-11-14T00:30:47.795Z,100327.16
2022-11-14T00:33:51.376Z,100322.97
2022-11-14T00:36:55.124Z,100315.28
2022-11-14T00:39:58.998Z,100305.22
2022-11-14T00:43:02.269Z,100313.53
2022-11-14T00:46:05.967Z,100310.34
2022-11-14T00:49:10.125Z,100303.44
2022-11-14T00:52:13.646Z,100310.34
2022-11-14T00:55:17.236Z,100295.31
2022-11-14T00:58:21.257Z,100294.72
2022-11-14T01:01:24.991Z,100298.22
2022-11-14T01:04:28.670Z,100293.28
2022-11-14T01:07:32.748Z,100289.50
2022-11-14T01:10:48.272Z,100290.66
2022-11-14T01:13:51.887Z,100293.31
2022-11-14T01:16:55.865Z,100297.78
2022-11-14T01:19:59.718Z,100299.78
2022-11-14T01:23:03.446Z,100293.09
2022-11-14T01:26:11.254Z,100290.63
2022-11-14T01:29:14.819Z,100299.63
2022-11-14T01:32:18.514Z,100292.66
2022-11-14T01:35:22.468Z,100291.59
2022-11-14T01:38:26.535Z,100297.59
2022-11-14T01:41:30.301Z,100289.75
2022-11-14T01:44:45.723Z,100290.97
2022-11-14T01:47:49.795Z,100296.16
2022-11-14T01:51:04.955Z,100294.97
2022-11-14T01:54:30.479Z,100291.31
2022-11-14T01:57:45.805Z,100296.84
2022-11-14T02:00:49.780Z,100292.25
2022-11-14T02:03:55.567Z,100293.84
2022-11-14T02:07:02.622Z,100293.03
2022-11-14T02:10:09.582Z,100289.72
2022-11-14T02:13:13.961Z,100292.94
2022-11-14T02:16:17.902Z,100291.09
2022-11-14T02:19:21.862Z,100283.00
2022-11-14T02:22:25.720Z,100285.09
2022-11-14T02:25:29.375Z,100291.47
2022-11-14T02:28:33.376Z,100281.56
2022-11-14T02:31:37.510Z,100282.84
2022-11-14T02:34:41.106Z,100288.84
2022-11-14T02:37:45.012Z,100285.09
2022-11-14T02:40:48.736Z,100283.47
2022-11-14T02:43:52.675Z,100282.97
2022-11-14T02:46:56.631Z,100285.47
2022-11-14T02:50:00.236Z,100280.63
2022-11-14T02:53:04.152Z,100291.16
2022-11-14T02:56:07.946Z,100289.66
2022-11-14T02:59:11.903Z,100282.44
2022-11-14T03:02:15.894Z,100279.19
2022-11-14T03:05:20.382Z,100271.31
2022-11-14T03:08:24.258Z,100278.84
2022-11-14T03:11:28.170Z,100273.34
2022-11-14T03:14:32.287Z,100278.47
2022-11-14T03:17:36.143Z,100281.31
2022-11-14T03:20:40.302Z,100274.25
2022-11-14T03:23:44.095Z,100276.63
2022-11-14T03:26:48.119Z,100276.81
2022-11-14T03:29:51.728Z,100273.47
2022-11-14T03:32:56.012Z,100273.91
2022-11-14T03:36:00.539Z,100276.91
2022-11-14T03:39:05.123Z,100272.22
2022-11-14T03:42:09.097Z,100278.16
2022-11-14T03:45:12.676Z,100286.44
2022-11-14T03:48:16.527Z,100280.38
2022-11-14T03:51:20.476Z,100274.59
2022-11-14T03:54:24.233Z,100277.16
2022-11-14T03:57:28.095Z,100280.00
2022-11-14T04:00:31.392Z,100278.84
2022-11-14T04:03:35.198Z,100282.06
2022-11-14T04:06:39.115Z,100271.47
2022-11-14T04:09:44.370Z,100280.09
2022-11-14T04:12:52.524Z,100279.91
2022-11-14T04:15:57.757Z,100274.63
2022-11-14T04:19:01.112Z,100276.41
2022-11-14T04:22:05.697Z,100264.38
2022-11-14T04:25:09.775Z,100281.16
2022-11-14T04:28:13.720Z,100272.69
2022-11-14T04:31:17.236Z,100274.28
2022-11-14T04:34:20.812Z,100267.91
2022-11-14T04:37:24.398Z,100266.03
2022-11-14T04:40:28.122Z,100263.06
2022-11-14T04:43:32.167Z,100268.00
2022-11-14T04:46:35.721Z,100269.13
2022-11-14T04:49:39.780Z,100271.00
2022-11-14T04:52:43.748Z,100275.50
2022-11-14T04:55:47.600Z,100270.53
2022-11-14T04:58:51.507Z,100269.47
2022-11-14T05:01:55.425Z,100273.72
2022-11-14T05:04:59.375Z,100281.94
2022-11-14T05:08:03.460Z,100276.53
2022-11-14T05:11:16.286Z,100280.69
2022-11-14T05:14:20.138Z,100293.34
2022-11-14T05:17:24.288Z,100292.00
2022-11-14T05:20:28.004Z,100289.00
2022-11-14T05:23:32.419Z,100294.22
2022-11-14T05:26:36.515Z,100300.47
2022-11-14T05:29:40.185Z,100299.06
2022-11-14T05:32:44.297Z,100305.16
2022-11-14T05:35:47.864Z,100295.00
2022-11-14T05:38:51.455Z,100292.63
2022-11-14T05:41:55.538Z,100292.19
2022-11-14T05:44:59.259Z,100303.66
2022-11-14T05:48:03.291Z,100302.78
2022-11-14T05:51:09.504Z,100303.56
2022-11-14T05:54:13.035Z,100304.19
2022-11-14T05:57:17.197Z,100294.41
2022-11-14T06:00:20.616Z,100290.84
2022-11-14T06:03:24.533Z,100296.25
2022-11-14T06:06:28.303Z,100297.78
2022-11-14T06:09:32.285Z,100295.47
2022-11-14T06:12:36.181Z,100300.22
2022-11-14T06:15:40.006Z,100294.31
2022-11-14T06:18:44.415Z,100304.72
2022-11-14T06:21:48.193Z,100305.53
2022-11-14T06:24:51.914Z,100313.22
2022-11-14T06:27:55.727Z,100303.59
2022-11-14T06:31:04.527Z,100310.13
2022-11-14T06:34:08.258Z,100316.31
2022-11-14T06:37:12.388Z,100308.72
2022-11-14T06:40:17.018Z,100305.63
2022-11-14T06:43:20.854Z,100308.81
2022-11-14T06:46:24.761Z,100314.09
2022-11-14T06:49:28.786Z,100317.19
2022-11-14T06:52:32.867Z,100317.19
2022-11-14T06:55:37.871Z,100318.69
2022-11-14T06:58:46.291Z,100318.25
2022-11-14T07:01:51.042Z,100321.16
2022-11-14T07:04:54.536Z,100323.38
2022-11-14T07:07:59.204Z,100321.78
2022-11-14T07:11:10.005Z,100322.97
2022-11-14T07:14:14.957Z,100321.75
2022-11-14T07:17:21.036Z,100321.63
2022-11-14T07:20:25.261Z,100319.34
2022-11-14T07:23:31.164Z,100314.91
2022-11-14T07:26:34.747Z,100315.91
2022-11-14T07:29:38.643Z,100309.25
2022-11-14T07:32:43.038Z,100310.88
2022-11-14T07:35:46.771Z,100315.00
2022-11-14T07:38:53.780Z,100308.31
2022-11-14T07:41:58.347Z,100305.13
2022-11-14T07:45:02.179Z,100304.31
2022-11-14T07:48:06.099Z,100307.06
2022-11-14T07:51:15.630Z,100307.31
2022-11-14T07:54:19.288Z,100300.78
2022-11-14T07:57:23.436Z,100312.81
2022-11-14T08:00:27.520Z,100307.56
2022-11-14T08:03:34.327Z,100302.81
2022-11-14T08:06:48.112Z,100307.22
2022-11-14T08:09:52.386Z,100298.88
2022-11-14T08:13:33.088Z,100304.72
2022-11-14T08:16:38.975Z,100310.84
2022-11-14T08:19:50.569Z,100301.91
2022-11-14T08:23:07.237Z,100301.66
2022-11-14T08:27:05.815Z,100314.81
2022-11-14T08:30:20.100Z,100297.81
2022-11-14T08:33:35.309Z,100304.56
2022-11-14T08:36:41.361Z,100290.75
2022-11-14T08:39:50.763Z,100303.88
2022-11-14T08:43:02.806Z,100295.94
2022-11-14T08:46:25.309Z,100293.84
2022-11-14T08:49:30.383Z,100299.22
2022-11-14T08:52:34.557Z,100299.31
2022-11-14T08:55:44.201Z,100297.59
2022-11-14T08:59:14.266Z,100295.16
2022-11-14T09:02:18.329Z,100302.84
2022-11-14T09:05:26.419Z,100304.25
2022-11-14T09:08:32.328Z,100309.56
2022-11-14T09:11:41.538Z,100310.31
2022-11-14T09:14:45.676Z,100296.13
2022-11-14T09:17:53.952Z,100291.44
2022-11-14T09:21:08.260Z,100285.56
2022-11-14T09:24:16.312Z,100291.22
2022-11-14T09:27:20.426Z,100279.78
2022-11-14T09:30:34.386Z,100284.16
2022-11-14T09:33:40.276Z,100276.59
2022-11-14T09:36:46.167Z,100276.13
2022-11-14T09:40:01.956Z,100274.03
2022-11-14T09:43:26.161Z,100267.78
2022-11-14T09:46:47.128Z,100272.69
2022-11-14T09:50:06.496Z,100264.78
2022-11-14T09:53:22.774Z,100268.44
2022-11-14T09:56:28.215Z,100262.13
2022-11-14T09:59:32.233Z,100269.28
2022-11-14T10:02:51.128Z,100262.78
2022-11-14T10:06:18.321Z,100270.00
2022-11-14T10:09:28.819Z,100265.25
2022-11-14T10:12:37.485Z,100268.28
2022-11-14T10:15:52.724Z,100255.38
2022-11-14T10:18:59.649Z,100251.84
2022-11-14T10:22:31.048Z,100257.34
2022-11-14T10:25:53.955Z,100255.63
2022-11-14T10:29:28.480Z,100251.63
2022-11-14T10:32:47.394Z,100256.91
2022-11-14T10:36:12.023Z,100252.16
2022-11-14T10:39:22.810Z,100243.88
2022-11-14T10:42:36.108Z,100232.63
2022-11-14T10:45:56.483Z,100229.38
2022-11-14T10:49:22.039Z,100232.78
2022-11-14T10:52:42.856Z,100221.06
2022-11-14T10:56:03.806Z,100214.66
2022-11-14T10:59:13.571Z,100202.88
2022-11-14T11:02:17.533Z,100211.34
2022-11-14T11:06:13.920Z,100213.28
2022-11-14T11:09:59.105Z,100202.78
2022-11-14T11:13:04.095Z,100215.69
2022-11-14T11:16:11.475Z,100219.31
2022-11-14T11:19:24.766Z,100208.31
2022-11-14T11:22:37.319Z,100210.28
2022-11-14T11:25:41.236Z,100209.06
2022-11-14T11:29:06.157Z,100204.81
2022-11-14T11:32:10.057Z,100203.03
2022-11-14T11:35:16.951Z,100210.69
2022-11-14T11:38:28.247Z,100203.97
2022-11-14T11:42:08.852Z,100200.69
2022-11-14T11:45:05.232Z,100200.44
2022-11-14T11:48:20.545Z,100193.88
2022-11-14T11:51:26.479Z,100198.81
2022-11-14T11:54:42.696Z,100191.97
2022-11-14T11:57:48.229Z,100192.34
2022-11-14T12:00:58.294Z,100190.97
2022-11-14T12:04:03.536Z,100176.28
2022-11-14T12:07:18.126Z,100182.44
2022-11-14T12:10:48.641Z,100177.56
2022-11-14T12:14:27.644Z,100172.00
2022-11-14T12:17:59.201Z,100164.44
2022-11-14T12:21:43.622Z,100163.59
2022-11-14T12:25:09.842Z,100162.03
2022-11-14T12:28:50.028Z,100157.31
2022-11-14T12:32:02.809Z,100157.66
2022-11-14T12:35:14.399Z,100148.19
2022-11-14T12:38:20.613Z,100161.91
2022-11-14T12:41:33.983Z,100157.63
2022-11-14T12:44:39.475Z,100148.38
2022-11-14T12:48:23.090Z,100154.81
2022-11-14T12:51:53.466Z,100150.28
2022-11-14T12:54:57.268Z,100149.72
2022-11-14T12:58:11.242Z,100158.00
2022-11-14T13:01:41.169Z,100160.44
2022-11-14T13:05:21.306Z,100153.94
2022-11-14T13:08:52.431Z,100156.97
2022-11-14T13:16:14.876Z,100160.13
2022-11-14T13:19:40.080Z,100148.41
2022-11-14T13:22:45.954Z,100141.44
2022-11-14T13:26:09.821Z,100151.28
2022-11-14T13:29:39.592Z,100153.00
2022-11-14T13:32:44.110Z,100152.97
2022-11-14T13:35:59.532Z,100153.91
2022-11-14T13:39:31.254Z,100143.47
2022-11-14T13:42:48.341Z,100147.50
2022-11-14T13:45:58.152Z,100145.78
2022-11-14T13:49:13.932Z,100142.31
2022-11-14T13:52:18.449Z,100137.34
2022-11-14T13:55:42.046Z,100140.13
2022-11-14T13:58:57.967Z,100134.91
2022-11-14T14:02:07.787Z,100134.22
2022-11-14T14:05:16.963Z,100128.78
2022-11-14T14:08:59.244Z,100135.78
2022-11-14T14:12:21.317Z,100130.44
2022-11-14T14:15:37.404Z,100126.81
2022-11-14T14:18:59.610Z,100124.88
2022-11-14T14:22:27.645Z,100122.34
2022-11-14T14:25:46.137Z,100120.59
2022-11-14T14:29:15.908Z,100118.00
2022-11-14T14:32:20.106Z,100121.13
2022-11-14T14:35:37.134Z,100127.28
2022-11-14T14:38:43.678Z,100120.63
2022-11-14T14:41:49.337Z,100128.00
2022-11-14T14:44:55.483Z,100121.81
2022-11-14T14:48:01.024Z,100128.06
2022-11-14T14:51:07.427Z,100122.50
2022-11-14T14:54:19.974Z,100113.25
2022-11-14T14:57:24.525Z,100120.78
2022-11-14T15:00:29.166Z,100117.59
2022-11-14T15:03:38.303Z,100116.78
2022-11-14T15:06:47.929Z,100111.22
2022-11-14T15:09:57.348Z,100100.25
2022-11-14T15:13:01.526Z,100106.91
2022-11-14T15:16:07.092Z,100105.78
2022-11-14T15:19:16.304Z,100109.44
2022-11-14T15:22:22.564Z,100104.22
2022-11-14T15:25:26.545Z,100103.09
2022-11-14T15:28:31.391Z,100100.88
2022-11-14T15:31:36.381Z,100101.50
2022-11-14T15:34:40.382Z,100102.47
2022-11-14T15:38:36.950Z,100100.22
2022-11-14T15:41:32.346Z,100098.31
2022-11-14T15:44:35.885Z,100090.84
2022-11-14T15:47:39.982Z,100090.66
2022-11-14T15:50:49.233Z,100085.41
2022-11-14T15:53:53.960Z,100088.13
2022-11-14T15:57:05.771Z,100076.97
2022-11-14T16:00:16.942Z,100079.03
2022-11-14T16:03:22.367Z,100075.97
2022-11-14T16:06:26.129Z,100077.28
2022-11-14T16:09:30.030Z,100081.88
2022-11-14T16:12:33.678Z,100074.72
2022-11-14T16:15:38.107Z,100082.97
2022-11-14T16:18:41.527Z,100080.91
2022-11-14T16:21:45.532Z,100078.66
2022-11-14T16:24:49.427Z,100076.75
2022-11-14T16:27:53.674Z,100072.47
2022-11-14T16:30:57.105Z,100071.66
2022-11-14T16:34:01.096Z,100069.63
2022-11-14T16:37:04.833Z,100076.63
2022-11-14T16:40:13.939Z,100070.72
2022-11-14T16:43:17.313Z,100071.34
2022-11-14T16:46:21.601Z,100072.75
2022-11-14T16:49:25.804Z,100061.13
2022-11-14T16:52:29.420Z,100057.03
2022-11-14T16:55:33.395Z,100060.50
2022-11-14T16:58:39.311Z,100063.06
2022-11-14T17:01:43.641Z,100063.22
2022-11-14T17:04:47.684Z,100060.34
2022-11-14T17:07:51.410Z,100067.00
2022-11-14T17:10:56.975Z,100064.78
2022-11-14T17:14:00.851Z,100064.13
2022-11-14T17:17:04.448Z,100060.16
2022-11-14T17:20:10.203Z,100058.59
2022-11-14T17:23:13.995Z,100052.19
2022-11-14T17:26:17.802Z,100055.03
2022-11-14T17:29:21.698Z,100053.47
2022-11-14T17:32:25.353Z,100052.81
2022-11-14T17:35:28.780Z,100049.31
2022-11-14T17:38:34.591Z,100042.78
2022-11-14T17:41:38.439Z,100043.09
2022-11-14T17:44:42.313Z,100041.31
2022-11-14T17:47:46.245Z,100041.50
2022-11-14T17:50:50.780Z,100043.53
2022-11-14T17:53:54.877Z,100042.91
2022-11-14T17:56:59.378Z,100030.94
2022-11-14T18:00:04.415Z,100031.72
2022-11-14T18:03:08.010Z,100036.19
2022-11-14T18:06:18.710Z,100030.44
2022-11-14T18:09:22.596Z,100034.09
2022-11-14T18:12:26.617Z,100036.00
2022-11-14T18:15:34.285Z,100033.59
2022-11-14T18:18:38.052Z,100035.34
2022-11-14T18:21:42.777Z,100031.22
2022-11-14T18:24:46.776Z,100036.44
2022-11-14T18:27:50.612Z,100029.16
2022-11-14T18:30:55.972Z,100028.19
2022-11-14T18:34:02.036Z,100017.19
2022-11-14T18:37:06.319Z,100006.25
2022-11-14T18:40:16.586Z,100009.59
2022-11-14T18:43:20.642Z,100009.31
2022-11-14T18:46:25.222Z,100015.03
2022-11-14T18:49:28.974Z,100012.47
2022-11-14T18:52:33.107Z,100014.09
2022-11-14T18:55:40.776Z,100013.94
2022-11-14T18:58:44.846Z,100008.19
2022-11-14T19:01:48.597Z,100008.41
2022-11-14T19:04:52.741Z,100009.09
2022-11-14T19:07:56.274Z,100003.88
2022-11-14T19:11:04.894Z,100008.00
2022-11-14T19:14:08.447Z,100005.47
2022-11-14T19:17:13.581Z,100003.91
2022-11-14T19:20:17.255Z,100014.88
2022-11-14T19:23:21.234Z,100001.81
2022-11-14T19:26:26.207Z,100007.72
2022-11-14T19:29:30.125Z,100016.00
2022-11-14T19:32:33.806Z,100020.78
2022-11-14T19:35:38.839Z,100017.59
2022-11-14T19:38:42.715Z,100022.19
2022-11-14T19:41:46.735Z,100015.81
2022-11-14T19:44:50.522Z,100010.06
2022-11-14T19:47:53.870Z,100007.38
2022-11-14T19:51:05.805Z,100000.50
2022-11-14T19:54:10.647Z,100008.47
2022-11-14T19:57:13.993Z,100000.19
2022-11-14T20:00:18.076Z,100003.22
2022-11-14T20:03:22.036Z,100008.81
2022-11-14T20:06:35.700Z,100004.78
2022-11-14T20:09:39.586Z,99997.94
2022-11-14T20:12:43.503Z,99996.38
2022-11-14T20:15:47.247Z,99993.50
2022-11-14T20:18:58.883Z,99986.00
2022-11-14T20:22:05.794Z,99978.22
2022-11-14T20:25:09.388Z,99987.44
2022-11-14T20:28:14.034Z,99979.63
2022-11-14T20:31:21.147Z,99984.69
2022-11-14T20:34:24.691Z,99972.75
2022-11-14T20:37:28.649Z,99971.00
2022-11-14T20:40:33.407Z,99973.41
2022-11-14T20:43:36.882Z,99974.03
2022-11-14T20:46:40.719Z,99977.50
2022-11-14T20:49:46.312Z,99974.34
2022-11-14T20:52:50.446Z,99968.28
2022-11-14T20:55:54.290Z,99969.25
2022-11-14T20:58:58.500Z,99960.66
2022-11-14T21:02:02.341Z,99960.47
2022-11-14T21:05:06.871Z,99960.28
2022-11-14T21:08:11.574Z,99951.69
2022-11-14T21:11:17.695Z,99955.66
2022-11-14T21:14:21.305Z,99957.28
2022-11-14T21:17:25.376Z,99945.94
2022-11-14T21:20:28.834Z,99949.63
2022-11-14T21:23:33.692Z,99944.53
2022-11-14T21:26:38.716Z,99940.38
2022-11-14T21:29:42.429Z,99942.31
2022-11-14T21:32:46.287Z,99940.88
2022-11-14T21:35:49.833Z,99936.25
2022-11-14T21:38:54.248Z,99931.81
2022-11-14T21:41:57.778Z,99938.81
2022-11-14T21:45:01.077Z,99938.81
2022-11-14T21:48:04.442Z,99927.84
2022-11-14T21:51:19.307Z,99928.59
2022-11-14T21:54:23.012Z,99927.66
2022-11-14T21:57:26.992Z,99923.50
2022-11-14T22:00:31.070Z,99910.31
2022-11-14T22:03:54.379Z,99902.81
2022-11-14T22:06:59.652Z,99906.97
2022-11-14T22:10:03.346Z,99902.81
2022-11-14T22:13:07.005Z,99895.34
2022-11-14T22:16:11.240Z,99889.91
2022-11-14T22:19:14.996Z,99893.28
2022-11-14T22:22:18.469Z,99888.00
2022-11-14T22:25:22.121Z,99876.38
2022-11-14T22:28:27.447Z,99874.44
2022-11-14T22:31:31.426Z,99871.09
2022-11-14T22:34:35.235Z,99864.44
2022-11-14T22:37:39.104Z,99870.78
2022-11-14T22:40:42.504Z,99867.09
2022-11-14T22:43:46.636Z,99855.16
2022-11-14T22:46:50.483Z,99852.78
2022-11-14T22:49:53.993Z,99849.53
2022-11-14T22:52:57.398Z,99833.19
2022-11-14T22:56:02.430Z,99829.00
2022-11-14T22:59:06.207Z,99829.78
2022-11-14T23:02:09.892Z,99827.53
2022-11-14T23:05:13.213Z,99820.81
2022-11-14T23:08:19.746Z,99818.13
2022-11-14T23:11:29.399Z,99808.84
2022-11-14T23:14:33.329Z,99806.09
2022-11-14T23:17:37.433Z,99793.97
2022-11-14T23:20:40.580Z,99791.88
2022-11-14T23:23:44.406Z,99787.75
2022-11-14T23:26:48.251Z,99784.41
2022-11-14T23:29:52.173Z,99783.59
2022-11-14T23:32:55.931Z,99786.63
2022-11-14T23:35:59.505Z,99775.63
2022-11-14T23:39:03.028Z,99776.84
2022-11-14T23:42:06.997Z,99766.66
2022-11-14T23:45:10.883Z,99763.16
2022-11-14T23:48:16.159Z,99764.38
2022-11-14T23:51:19.683Z,99759.91
2022-11-14T23:54:23.774Z,99752.09
2022-11-14T23:57:27.867Z,99755.09
